createdAt,value
2023-05-08T00:02:35.626Z,4.20
2023-05-08T00:06:38.681Z,5.07
2023-05-08T00:10:42.985Z,4.20
2023-05-08T00:14:45.924Z,4.37
2023-05-08T00:18:53.482Z,4.03
2023-05-08T00:22:57.792Z,4.43
2023-05-08T00:27:02.284Z,4.50
2023-05-08T00:31:05.040Z,4.57
2023-05-08T00:35:08.420Z,4.70
2023-05-08T00:39:11.060Z,4.70
2023-05-08T00:43:17.916Z,4.50
2023-05-08T00:47:21.816Z,4.97
2023-05-08T00:51:25.054Z,4.87
2023-05-08T00:55:28.853Z,4.60
2023-05-08T00:59:33.873Z,4.53
2023-05-08T01:03:37.797Z,5.30
2023-05-08T01:07:40.728Z,4.40
2023-05-08T01:11:48.917Z,4.40
2023-05-08T01:16:00.875Z,4.43
2023-05-08T01:20:24.956Z,4.50
2023-05-08T01:24:48.711Z,4.40
2023-05-08T01:29:30.223Z,4.30
2023-05-08T01:33:38.182Z,4.20
2023-05-08T01:37:45.892Z,4.40
2023-05-08T01:42:00.326Z,3.83
2023-05-08T01:46:07.210Z,4.30
2023-05-08T01:50:16.096Z,4.20
2023-05-08T01:54:24.810Z,4.50
2023-05-08T01:58:30.079Z,4.50
2023-05-08T02:02:33.808Z,4.60
2023-05-08T02:06:38.584Z,4.03
2023-05-08T02:10:42.599Z,4.40
2023-05-08T02:14:46.967Z,4.57
2023-05-08T02:18:52.500Z,4.50
2023-05-08T02:22:57.177Z,3.77
2023-05-08T02:27:00.452Z,4.20
2023-05-08T02:31:03.198Z,4.60
2023-05-08T02:35:07.256Z,4.07
2023-05-08T02:39:12.996Z,4.50
2023-05-08T02:43:15.682Z,4.47
2023-05-08T02:47:22.446Z,4.87
2023-05-08T02:51:28.167Z,4.77
2023-05-08T02:55:36.309Z,4.37
2023-05-08T02:59:43.976Z,4.50
2023-05-08T03:03:47.956Z,4.40
2023-05-08T03:07:54.845Z,4.70
2023-05-08T03:12:03.860Z,4.33
2023-05-08T03:16:07.812Z,5.27
2023-05-08T03:20:14.193Z,4.60
2023-05-08T03:24:18.974Z,4.50
2023-05-08T03:28:23.935Z,4.10
2023-05-08T03:32:28.815Z,5.00
2023-05-08T03:36:32.145Z,5.30
2023-05-08T03:40:38.553Z,4.70
2023-05-08T03:44:43.729Z,4.53
2023-05-08T03:48:47.570Z,4.57
2023-05-08T03:52:51.223Z,4.90
2023-05-08T03:56:55.110Z,4.50
2023-05-08T04:01:07.306Z,5.57
2023-05-08T04:05:15.647Z,5.33
2023-05-08T04:09:22.054Z,5.03
2023-05-08T04:13:29.341Z,5.10
2023-05-08T04:17:38.899Z,5.57
2023-05-08T04:21:45.880Z,5.77
2023-05-08T04:25:49.799Z,5.63
2023-05-08T04:29:52.468Z,5.67
2023-05-08T04:33:57.012Z,5.07
2023-05-08T04:38:00.101Z,5.60
2023-05-08T04:42:05.064Z,5.97
2023-05-08T04:46:10.141Z,5.83
2023-05-08T04:50:14.484Z,5.90
2023-05-08T04:54:17.187Z,5.67
2023-05-08T04:58:19.797Z,5.60
2023-05-08T05:02:22.518Z,6.50
2023-05-08T05:06:27.517Z,5.10
2023-05-08T05:10:30.289Z,6.30
2023-05-08T05:14:33.179Z,5.87
2023-05-08T05:18:38.620Z,7.63
2023-05-08T05:22:44.754Z,6.43
2023-05-08T05:26:47.465Z,6.37
2023-05-08T05:30:50.451Z,6.47
2023-05-08T05:34:53.885Z,6.73
2023-05-08T05:38:57.883Z,6.30
2023-05-08T05:43:00.742Z,6.40
2023-05-08T05:47:05.155Z,6.60
2023-05-08T05:51:08.171Z,7.00
2023-05-08T05:55:12.671Z,7.27
2023-05-08T05:59:15.858Z,7.13
2023-05-08T06:03:18.885Z,8.07
2023-05-08T06:07:21.891Z,6.97
2023-05-08T06:11:25.924Z,6.70
2023-05-08T06:15:28.618Z,6.37
2023-05-08T06:19:31.275Z,7.13
2023-05-08T06:23:34.239Z,5.73
2023-05-08T06:27:38.686Z,6.77
2023-05-08T06:31:41.361Z,6.30
2023-05-08T06:35:47.370Z,7.37
2023-05-08T06:39:57.295Z,6.57
2023-05-08T06:44:08.453Z,5.93
2023-05-08T06:48:11.128Z,6.30
2023-05-08T06:52:13.922Z,6.73
2023-05-08T06:56:18.522Z,6.00
2023-05-08T07:00:23.056Z,6.00
2023-05-08T07:04:25.806Z,6.63
2023-05-08T07:08:30.153Z,7.37
2023-05-08T07:12:32.860Z,6.70
2023-05-08T07:16:37.781Z,6.77
2023-05-08T07:20:40.483Z,6.20
2023-05-08T07:24:43.672Z,5.83
2023-05-08T07:28:46.461Z,5.90
2023-05-08T07:32:50.652Z,7.10
2023-05-08T07:36:53.422Z,6.37
2023-05-08T07:40:57.540Z,6.77
2023-05-08T07:45:01.705Z,6.47
2023-05-08T07:49:06.212Z,7.80
2023-05-08T07:53:08.941Z,6.13
2023-05-08T07:57:11.788Z,6.60
2023-05-08T08:01:17.811Z,6.43
2023-05-08T08:05:22.691Z,6.90
2023-05-08T08:09:25.700Z,6.80
2023-05-08T08:13:29.782Z,6.80
2023-05-08T08:17:32.862Z,7.10
2023-05-08T08:21:37.251Z,5.97
2023-05-08T08:25:39.997Z,6.80
2023-05-08T08:29:42.706Z,6.57
2023-05-08T08:33:45.764Z,7.03
2023-05-08T08:37:50.310Z,6.43
2023-05-08T08:41:53.032Z,6.70
2023-05-08T08:45:59.413Z,6.83
2023-05-08T08:50:05.282Z,7.00
2023-05-08T08:54:15.686Z,7.03
2023-05-08T08:58:23.103Z,6.63
2023-05-08T09:02:27.051Z,7.13
2023-05-08T09:06:29.947Z,6.30
2023-05-08T09:10:34.496Z,7.13
2023-05-08T09:14:37.444Z,6.13
2023-05-08T09:18:40.182Z,6.80
2023-05-08T09:22:44.386Z,7.20
2023-05-08T09:26:51.012Z,7.45
2023-05-08T09:30:54.975Z,6.87
2023-05-08T09:34:58.144Z,7.03
2023-05-08T09:39:00.815Z,7.20
2023-05-08T09:43:14.235Z,6.60
2023-05-08T09:47:18.822Z,6.72
2023-05-08T09:51:22.284Z,6.37
2023-05-08T09:55:24.895Z,7.30
2023-05-08T09:59:33.894Z,7.37
2023-05-08T10:03:49.544Z,6.43
2023-05-08T10:07:52.734Z,7.00
2023-05-08T10:11:56.038Z,7.37
2023-05-08T10:16:00.679Z,6.67
2023-05-08T10:20:08.214Z,6.77
2023-05-08T10:24:15.371Z,6.30
2023-05-08T10:28:23.844Z,6.60
2023-05-08T10:32:29.992Z,7.27
2023-05-08T10:36:33.507Z,6.00
2023-05-08T10:40:36.470Z,6.90
2023-05-08T10:44:40.011Z,7.10
2023-05-08T10:48:53.964Z,7.70
2023-05-08T10:53:08.337Z,5.57
2023-05-08T10:57:12.046Z,5.47
2023-05-08T11:01:16.478Z,6.60
2023-05-08T11:05:21.263Z,6.90
2023-05-08T11:09:24.930Z,6.73
2023-05-08T11:13:32.585Z,7.50
2023-05-08T11:17:35.458Z,7.17
2023-05-08T11:22:18.179Z,8.13
2023-05-08T11:26:21.766Z,7.67
2023-05-08T11:30:45.009Z,6.07
2023-05-08T11:34:49.167Z,5.33
2023-05-08T11:43:27.147Z,7.70
2023-05-08T11:47:33.998Z,6.37
2023-05-08T11:51:38.489Z,5.20
2023-05-08T11:55:41.562Z,7.77
2023-05-08T11:59:45.745Z,6.17
2023-05-08T12:03:48.801Z,6.27
2023-05-08T12:07:52.536Z,5.60
2023-05-08T12:11:58.951Z,7.57
2023-05-08T12:16:03.435Z,8.17
2023-05-08T12:20:14.343Z,8.20
2023-05-08T12:24:24.710Z,8.30
2023-05-08T12:28:27.388Z,7.50
2023-05-08T12:32:31.634Z,7.03
2023-05-08T12:36:37.636Z,8.00
2023-05-08T12:40:43.502Z,6.70
2023-05-08T12:44:51.768Z,7.10
2023-05-08T12:49:04.608Z,7.13
2023-05-08T12:53:08.534Z,8.33
2023-05-08T12:57:12.600Z,7.20
2023-05-08T13:01:17.142Z,6.70
2023-05-08T13:05:22.737Z,7.40
2023-05-08T13:09:25.628Z,8.10
2023-05-08T13:13:30.164Z,7.45
2023-05-08T13:17:34.333Z,6.60
2023-05-08T13:21:38.873Z,8.07
2023-05-08T13:25:42.453Z,6.93
2023-05-08T13:29:45.266Z,7.70
2023-05-08T13:33:48.308Z,7.20
2023-05-08T13:37:55.092Z,7.63
2023-05-08T13:41:57.795Z,7.00
2023-05-08T13:46:00.503Z,6.67
2023-05-08T13:50:08.520Z,7.10
2023-05-08T13:54:17.764Z,6.77
2023-05-08T13:58:20.543Z,6.87
2023-05-08T14:02:27.104Z,6.47
2023-05-08T14:06:33.710Z,7.03
2023-05-08T14:10:37.794Z,5.47
2023-05-08T14:14:40.606Z,5.73
2023-05-08T14:18:43.292Z,7.90
2023-05-08T14:22:47.260Z,7.03
2023-05-08T14:26:51.982Z,6.95
2023-05-08T14:30:54.714Z,6.25
2023-05-08T14:34:57.444Z,5.00
2023-05-08T14:39:00.667Z,6.13
2023-05-08T14:43:04.797Z,6.50
2023-05-08T14:47:07.680Z,5.90
2023-05-08T14:51:12.030Z,6.50
2023-05-08T14:55:20.633Z,8.50
2023-05-08T14:59:25.284Z,5.70
2023-05-08T15:03:28.218Z,5.93
2023-05-08T15:07:31.705Z,5.57
2023-05-08T15:11:35.660Z,5.70
2023-05-08T15:15:40.067Z,5.77
2023-05-08T15:19:42.788Z,6.03
2023-05-08T15:23:45.527Z,5.47
2023-05-08T15:27:52.470Z,6.20
2023-05-08T15:31:56.944Z,6.00
2023-05-08T15:35:59.695Z,5.57
2023-05-08T15:40:02.454Z,6.10
2023-05-08T15:44:05.432Z,6.00
2023-05-08T15:48:09.671Z,6.23
2023-05-08T15:52:18.644Z,6.33
2023-05-08T15:56:24.438Z,5.60
2023-05-08T16:00:30.277Z,5.60
2023-05-08T16:04:44.992Z,7.00
2023-05-08T16:08:47.722Z,5.10
2023-05-08T16:12:51.163Z,5.53
2023-05-08T16:16:53.900Z,6.93
2023-05-08T16:20:58.026Z,12.70
2023-05-08T16:25:01.045Z,5.07
2023-05-08T16:29:03.762Z,5.20
2023-05-08T16:33:06.520Z,4.97
2023-05-08T16:37:11.374Z,4.70
2023-05-08T16:41:14.407Z,4.97
2023-05-08T16:45:17.222Z,5.10
2023-05-08T16:49:19.879Z,4.57
2023-05-08T16:53:23.944Z,4.50
2023-05-08T16:57:27.359Z,4.60
2023-05-08T17:01:30.172Z,5.53
2023-05-08T17:05:33.514Z,6.77
2023-05-08T17:09:37.879Z,4.10
2023-05-08T17:13:43.579Z,3.60
2023-05-08T17:17:52.938Z,3.60
2023-05-08T17:21:58.127Z,3.23
2023-05-08T17:26:04.420Z,2.60
2023-05-08T17:30:11.916Z,2.77
2023-05-08T17:34:15.250Z,3.40
2023-05-08T17:38:18.427Z,2.87
2023-05-08T17:42:22.655Z,3.20
2023-05-08T17:46:25.642Z,3.10
2023-05-08T17:50:28.347Z,3.10
2023-05-08T17:54:31.371Z,5.50
2023-05-08T17:58:35.703Z,4.13
2023-05-08T18:02:38.881Z,3.07
2023-05-08T18:06:43.315Z,3.87
2023-05-08T18:10:47.926Z,2.83
2023-05-08T18:14:53.351Z,4.43
2023-05-08T18:18:57.183Z,2.60
2023-05-08T18:22:59.867Z,2.50
2023-05-08T18:27:02.648Z,3.17
2023-05-08T18:31:06.964Z,3.00
2023-05-08T18:35:10.270Z,6.67
2023-05-08T18:39:13.052Z,2.90
2023-05-08T18:43:16.459Z,3.50
2023-05-08T18:47:20.746Z,5.23
2023-05-08T18:51:23.513Z,3.70
2023-05-08T18:55:27.312Z,4.37
2023-05-08T18:59:30.053Z,3.00
2023-05-08T19:03:34.318Z,3.20
2023-05-08T19:07:37.558Z,3.17
2023-05-08T19:11:40.298Z,4.47
2023-05-08T19:15:43.090Z,3.30
2023-05-08T19:19:47.221Z,3.10
2023-05-08T19:23:50.278Z,4.23
2023-05-08T19:27:53.146Z,3.23
2023-05-08T19:31:56.601Z,3.50
2023-05-08T19:36:00.881Z,3.30
2023-05-08T19:40:03.876Z,3.28
2023-05-08T19:44:06.772Z,3.30
2023-05-08T19:48:17.369Z,3.70
2023-05-08T19:52:22.529Z,3.63
2023-05-08T19:56:25.246Z,3.30
2023-05-08T20:00:28.480Z,3.20
2023-05-08T20:04:33.938Z,3.00
2023-05-08T20:08:46.603Z,3.00
2023-05-08T20:12:49.978Z,3.20
2023-05-08T20:16:52.978Z,3.27
2023-05-08T20:20:55.663Z,6.27
2023-05-08T20:25:04.483Z,3.63
2023-05-08T20:29:07.644Z,3.40
2023-05-08T20:33:10.501Z,3.43
2023-05-08T20:37:15.862Z,4.97
2023-05-08T20:41:20.006Z,3.77
2023-05-08T20:45:22.728Z,3.70
2023-05-08T20:49:26.009Z,3.67
2023-05-08T20:53:29.065Z,4.20
2023-05-08T20:57:33.161Z,3.40
2023-05-08T21:01:38.421Z,3.93
2023-05-08T21:05:41.263Z,3.23
2023-05-08T21:09:44.132Z,3.80
2023-05-08T21:13:48.471Z,3.50
2023-05-08T21:17:51.443Z,3.80
2023-05-08T21:21:54.388Z,3.80
2023-05-08T21:25:59.153Z,4.10
2023-05-08T21:30:03.282Z,3.60
2023-05-08T21:34:06.870Z,4.23
2023-05-08T21:38:11.903Z,4.10
2023-05-08T21:42:14.905Z,3.90
2023-05-08T21:46:18.963Z,3.97
2023-05-08T21:50:21.681Z,4.30
2023-05-08T21:54:24.386Z,4.07
2023-05-08T21:58:27.355Z,3.60
2023-05-08T22:02:31.708Z,3.87
2023-05-08T22:06:34.462Z,3.70
2023-05-08T22:10:37.248Z,4.70
2023-05-08T22:14:39.982Z,5.13
2023-05-08T22:18:44.288Z,3.80
2023-05-08T22:22:47.421Z,4.20
2023-05-08T22:26:50.119Z,4.10
2023-05-08T22:30:52.851Z,4.67
2023-05-08T22:34:58.073Z,3.70
2023-05-08T22:39:03.751Z,3.83
2023-05-08T22:43:06.575Z,3.90
2023-05-08T22:47:09.508Z,3.97
2023-05-08T22:51:14.086Z,4.20
2023-05-08T22:55:17.121Z,4.43
2023-05-08T22:59:20.052Z,5.40
2023-05-08T23:03:22.809Z,6.17
2023-05-08T23:07:26.936Z,4.67
2023-05-08T23:11:29.653Z,4.23
2023-05-08T23:15:32.373Z,4.07
2023-05-08T23:19:35.074Z,3.80
2023-05-08T23:23:39.190Z,4.40
2023-05-08T23:27:41.959Z,5.03
2023-05-08T23:31:45.032Z,4.33
2023-05-08T23:35:47.727Z,4.27
2023-05-08T23:39:51.772Z,4.47
2023-05-08T23:43:54.702Z,5.23
2023-05-08T23:47:57.436Z,3.87
2023-05-08T23:52:00.228Z,4.63
2023-05-08T23:56:04.490Z,4.43
